Emine Anne — TCBX9 — position and weather

sailwx.info

Track history (hours):
 
Tides and Currents Weather Stations Pressure Air Temp Water Temp Dewpoint Dewpoint Depression Visibility Wind Speed Wind Dir Waves Ship Positions

Emine Anne

Last reported at 2014-Aug-21 00:08 UTC. Time now 2014-Aug-22 03:58 UTC.
Position N 40°55' E 028°51'.

Length 69 m; draft 4.3 m.

Type: Ship. MMSI: 271002305.

Date/timePositionNaut miles runAvg speedWind from/ knotsBaromVisibWave heightAir tempDewpointWater temp
2014-Aug-21 00:08N 40°55' E 028°51'4 0.4
2014-Aug-20 13:28N 40°58' E 028°54'  
2014-Aug-17 14:34N 40°58' E 028°58'66 3.2
2014-Aug-16 18:14N 42°04' E 029°02'9 8.4
2014-Aug-16 17:13N 42°13' E 029°02'6 8.4
2014-Aug-16 16:34N 42°18' E 029°02'17 8.3
2014-Aug-16 14:32N 42°35' E 029°03'  
2014-Aug-13 05:20N 45°21' E 029°43'4 0.9
2014-Aug-13 00:16N 45°18' E 029°48'0 0.0
2014-Aug-12 23:26N 45°18' E 029°48'0 0.0
2014-Aug-12 22:31N 45°18' E 029°48'0 0.0
2014-Aug-12 21:27N 45°18' E 029°48'4 4.6
2014-Aug-12 20:33N 45°17' E 029°53'9 8.6
2014-Aug-12 19:33N 45°12' E 030°03'9 8.7
2014-Aug-12 18:33N 45°06' E 030°13'9 8.7
2014-Aug-12 17:31N 45°01' E 030°23'213 8.9
2014-Aug-11 17:30N 42°54' E 034°21'18 8.7
2014-Aug-11 15:26N 42°39' E 034°34'7 8.6
2014-Aug-11 14:34N 42°32' E 034°38'38 7.0
2014-Aug-11 09:13N 42°07' E 035°17'  
Track history (hours):
 
Tides and Currents Weather Stations Pressure Air Temp Water Temp Dewpoint Dewpoint Depression Visibility Wind Speed Wind Dir Waves Ship Positions

Emine Anne

Last reported at 2014-Aug-21 00:08 UTC. Time now 2014-Aug-22 03:58 UTC.
Position N 40°55' E 028°51'.

Length 69 m; draft 4.3 m.

Type: Ship. MMSI: 271002305.

Date/timePositionNaut miles runAvg speedWind from/ knotsBaromVisibWave heightAir tempDewpointWater temp
2014-Aug-21 00:08N 40°55' E 028°51'4 0.4
2014-Aug-20 13:28N 40°58' E 028°54'  
2014-Aug-17 14:34N 40°58' E 028°58'66 3.2
2014-Aug-16 18:14N 42°04' E 029°02'9 8.4
2014-Aug-16 17:13N 42°13' E 029°02'6 8.4
2014-Aug-16 16:34N 42°18' E 029°02'17 8.3
2014-Aug-16 14:32N 42°35' E 029°03'  
2014-Aug-13 05:20N 45°21' E 029°43'4 0.9
2014-Aug-13 00:16N 45°18' E 029°48'0 0.0
2014-Aug-12 23:26N 45°18' E 029°48'0 0.0
2014-Aug-12 22:31N 45°18' E 029°48'0 0.0
2014-Aug-12 21:27N 45°18' E 029°48'4 4.6
2014-Aug-12 20:33N 45°17' E 029°53'9 8.6
2014-Aug-12 19:33N 45°12' E 030°03'9 8.7
2014-Aug-12 18:33N 45°06' E 030°13'9 8.7
2014-Aug-12 17:31N 45°01' E 030°23'213 8.9
2014-Aug-11 17:30N 42°54' E 034°21'18 8.7
2014-Aug-11 15:26N 42°39' E 034°34'7 8.6
2014-Aug-11 14:34N 42°32' E 034°38'38 7.0
2014-Aug-11 09:13N 42°07' E 035°17'  

Dump ship's entire track history